GVBA

Details ICAO GVBA (BVC)
Name Rabil
Region Cape Verde
Timezone Atlantic/Cape_Verde (UTC-1.0)
Plans Departing 27
Arriving 47
Stats Elevation 69 ft / 21 m (AMSL)
Location 16.136532° -22.888897°
Runways 1
Magnetic Variation 9.294° W
Sunrise 2018-05-25 07:00:45 UTC / 2018-05-25 06:00:45 Local
Sunset 2018-05-25 19:59:07 UTC / 2018-05-25 18:59:07 Local
Advertisement - Login to hide

Runways

ID Width Length Bearing (true) Bearing (mag) Surface Threshold Offset Overrun Length
03 98 ft / 30 m 4,025 ft / 1,227 m 16.53° 25.82° Asphalt 0 ft / 0 m 0 ft / 0 m
21 98 ft / 30 m 4,025 ft / 1,227 m 196.53° 205.82° Asphalt 0 ft / 0 m 0 ft / 0 m

Map

Weather


0- 5 10 15 20 25 30 35+ Temperature / ° C

Clouds and Precipitation
Forecast for 2018-05-25 12:00 UTC. Updated 2 hours ago

Ground ~20,000 ft ~40,000 ft Winds

METAR

GVBA 251300Z 02019KT 9999 BKN015 24/16 Q1016 NOSIG

TAF

TAF GVBA 251100Z 2512/2618 03020KT 9999 BKN015 TEMPO 2602/2608 02010KT SCT015
Warning: Do not use this data for real-world aviation or navigation. No guarantee of current accuracy is given.